createdAt,value
2022-10-05T00:01:25.962Z,11.26
2022-10-05T00:04:15.230Z,11.24
2022-10-05T00:07:01.427Z,11.24
2022-10-05T00:09:42.208Z,11.22
2022-10-05T00:12:33.682Z,11.20
2022-10-05T00:15:14.355Z,11.20
2022-10-05T00:17:54.821Z,11.21
2022-10-05T00:20:34.683Z,11.23
2022-10-05T00:23:19.441Z,11.25
2022-10-05T00:25:58.289Z,11.25
2022-10-05T00:28:38.902Z,11.28
2022-10-05T00:31:22.256Z,11.29
2022-10-05T00:34:03.286Z,11.30
2022-10-05T00:37:26.731Z,11.25
2022-10-05T00:40:17.694Z,11.27
2022-10-05T00:43:04.819Z,11.26
2022-10-05T00:45:47.442Z,11.21
2022-10-05T00:48:32.528Z,11.23
2022-10-05T00:51:25.120Z,11.27
2022-10-05T00:54:26.281Z,11.29
2022-10-05T00:57:25.863Z,11.33
2022-10-05T01:00:08.736Z,11.33
2022-10-05T01:02:53.422Z,11.34
2022-10-05T01:05:42.084Z,11.39
2022-10-05T01:08:29.653Z,11.39
2022-10-05T01:11:16.463Z,11.43
2022-10-05T01:14:04.778Z,11.48
2022-10-05T01:16:52.529Z,11.46
2022-10-05T01:19:45.463Z,11.51
2022-10-05T01:22:49.885Z,11.55
2022-10-05T01:25:39.606Z,11.60
2022-10-05T01:28:24.382Z,11.62
2022-10-05T01:31:11.843Z,11.63
2022-10-05T01:33:57.507Z,11.63
2022-10-05T01:36:41.719Z,11.65
2022-10-05T01:39:26.602Z,11.66
2022-10-05T01:42:14.458Z,11.70
2022-10-05T01:44:59.481Z,11.73
2022-10-05T01:47:44.529Z,11.75
2022-10-05T01:50:31.804Z,11.76
2022-10-05T01:53:31.361Z,11.81
2022-10-05T01:56:19.989Z,11.81
2022-10-05T01:59:16.010Z,11.83
2022-10-05T02:02:00.154Z,11.80
2022-10-05T02:05:01.625Z,11.78
2022-10-05T02:07:45.557Z,11.80
2022-10-05T02:10:30.380Z,11.82
2022-10-05T02:13:15.446Z,11.83
2022-10-05T02:15:59.921Z,11.84
2022-10-05T02:18:43.098Z,11.88
2022-10-05T02:21:24.561Z,11.92
2022-10-05T02:24:23.109Z,11.93
2022-10-05T02:27:07.286Z,11.93
2022-10-05T02:29:48.242Z,11.96
2022-10-05T02:32:42.146Z,11.97
2022-10-05T02:35:25.016Z,11.99
2022-10-05T02:38:11.367Z,12.02
2022-10-05T02:40:58.641Z,12.04
2022-10-05T02:43:42.879Z,12.03
2022-10-05T02:46:31.713Z,12.06
2022-10-05T02:49:20.896Z,12.08
2022-10-05T02:52:06.310Z,12.10
2022-10-05T02:54:51.065Z,12.10
2022-10-05T02:57:32.061Z,12.09
2022-10-05T03:00:14.977Z,12.07
2022-10-05T03:03:01.646Z,12.10
2022-10-05T03:05:45.786Z,12.09
2022-10-05T03:09:07.672Z,12.07
2022-10-05T03:11:57.102Z,12.06
2022-10-05T03:14:57.415Z,12.07
2022-10-05T03:17:46.227Z,12.05
2022-10-05T03:20:33.405Z,12.10
2022-10-05T03:23:55.946Z,12.07
2022-10-05T03:26:46.563Z,12.07
2022-10-05T03:29:31.566Z,12.05
2022-10-05T03:32:18.828Z,12.05
2022-10-05T03:35:48.840Z,12.09
2022-10-05T03:38:36.792Z,12.10
2022-10-05T03:41:25.321Z,12.07
2022-10-05T03:44:18.591Z,12.05
2022-10-05T03:47:15.788Z,12.05
2022-10-05T03:50:12.980Z,12.03
2022-10-05T03:52:57.817Z,12.01
2022-10-05T03:55:42.172Z,12.03
2022-10-05T03:58:26.884Z,12.03
2022-10-05T04:01:11.345Z,12.04
2022-10-05T04:03:51.281Z,12.00
2022-10-05T04:06:34.458Z,12.01
2022-10-05T04:09:29.087Z,12.02
2022-10-05T04:12:15.175Z,12.05
2022-10-05T04:15:20.622Z,12.01
2022-10-05T04:18:03.999Z,12.05
2022-10-05T04:20:46.113Z,12.04
2022-10-05T04:23:40.030Z,12.04
2022-10-05T04:26:33.576Z,12.06
2022-10-05T04:29:18.232Z,12.07
2022-10-05T04:32:20.766Z,12.09
2022-10-05T04:35:14.131Z,12.10
2022-10-05T04:38:00.503Z,12.08
2022-10-05T04:40:52.280Z,12.12
2022-10-05T04:43:37.877Z,12.10
2022-10-05T04:46:28.096Z,12.06
2022-10-05T04:49:28.921Z,12.06
2022-10-05T04:52:14.521Z,11.99
2022-10-05T04:55:05.351Z,12.01
2022-10-05T04:57:50.818Z,12.03
2022-10-05T05:00:41.025Z,12.03
2022-10-05T05:03:39.307Z,12.07
2022-10-05T05:06:28.096Z,12.03
2022-10-05T05:09:24.437Z,11.99
2022-10-05T05:12:21.640Z,12.02
2022-10-05T05:15:17.136Z,11.94
2022-10-05T05:18:41.589Z,11.95
2022-10-05T05:21:32.987Z,11.92
2022-10-05T05:24:21.574Z,11.88
2022-10-05T05:27:19.635Z,11.87
2022-10-05T05:30:21.313Z,11.89
2022-10-05T05:33:11.051Z,11.86
2022-10-05T05:36:11.132Z,11.84
2022-10-05T05:39:00.790Z,11.85
2022-10-05T05:41:47.695Z,11.82
2022-10-05T05:44:31.768Z,11.77
2022-10-05T05:47:18.478Z,11.77
2022-10-05T05:50:11.772Z,11.77
2022-10-05T05:53:16.772Z,11.75
2022-10-05T05:56:00.573Z,11.74
2022-10-05T05:58:46.801Z,11.69
2022-10-05T06:01:49.916Z,11.73
2022-10-05T06:04:35.238Z,11.76
2022-10-05T06:07:17.716Z,11.77
2022-10-05T06:10:23.346Z,11.79
2022-10-05T06:13:17.191Z,11.80
2022-10-05T06:16:00.943Z,11.77
2022-10-05T06:18:44.857Z,11.74
2022-10-05T06:21:30.015Z,11.80
2022-10-05T06:24:25.949Z,11.82
2022-10-05T06:27:25.080Z,11.86
2022-10-05T06:30:09.081Z,11.90
2022-10-05T06:33:05.484Z,11.89
2022-10-05T06:35:54.148Z,11.91
2022-10-05T06:38:55.916Z,12.00
2022-10-05T06:41:47.771Z,12.06
2022-10-05T06:44:33.840Z,12.12
2022-10-05T06:48:00.400Z,12.21
2022-10-05T06:51:18.639Z,12.43
2022-10-05T06:54:27.470Z,12.46
2022-10-05T06:57:13.124Z,12.46
2022-10-05T07:00:00.240Z,12.54
2022-10-05T07:02:56.396Z,12.65
2022-10-05T07:05:47.897Z,12.80
2022-10-05T07:08:36.443Z,12.96
2022-10-05T07:11:28.796Z,13.05
2022-10-05T07:14:20.802Z,12.95
2022-10-05T07:17:18.552Z,13.06
2022-10-05T07:20:17.097Z,13.12
2022-10-05T07:23:12.714Z,13.18
2022-10-05T07:26:00.705Z,13.22
2022-10-05T07:28:47.038Z,13.23
2022-10-05T07:31:32.721Z,13.27
2022-10-05T07:34:18.650Z,13.35
2022-10-05T07:37:20.572Z,13.40
2022-10-05T07:40:07.733Z,13.47
2022-10-05T07:43:00.804Z,13.53
2022-10-05T07:45:47.243Z,13.57
2022-10-05T07:48:43.284Z,13.56
2022-10-05T07:51:30.436Z,13.64
2022-10-05T07:55:16.987Z,13.67
2022-10-05T07:58:04.171Z,13.78
2022-10-05T08:01:05.587Z,13.84
2022-10-05T08:04:03.278Z,13.91
2022-10-05T08:06:57.797Z,14.06
2022-10-05T08:09:42.241Z,14.13
2022-10-05T08:12:32.084Z,14.30
2022-10-05T08:15:15.769Z,14.43
2022-10-05T08:18:00.360Z,14.58
2022-10-05T08:20:45.596Z,14.70
2022-10-05T08:23:35.898Z,14.83
2022-10-05T08:26:42.985Z,14.96
2022-10-05T08:29:30.539Z,15.13
2022-10-05T08:32:15.705Z,15.23
2022-10-05T08:35:01.507Z,15.42
2022-10-05T08:37:43.594Z,15.48
2022-10-05T08:41:07.816Z,15.61
2022-10-05T08:44:27.100Z,15.72
2022-10-05T08:47:16.809Z,15.71
2022-10-05T08:50:34.979Z,15.96
2022-10-05T08:53:26.026Z,16.13
2022-10-05T08:56:28.910Z,15.97
2022-10-05T08:59:42.383Z,16.06
2022-10-05T09:02:29.955Z,16.08
2022-10-05T09:05:19.919Z,16.04
2022-10-05T09:08:36.498Z,16.08
2022-10-05T09:11:21.405Z,16.17
2022-10-05T09:14:36.850Z,16.19
2022-10-05T09:17:50.016Z,16.29
2022-10-05T09:20:38.772Z,16.29
2022-10-05T09:23:32.728Z,16.30
2022-10-05T09:26:42.819Z,16.26
2022-10-05T09:30:12.897Z,16.24
2022-10-05T09:33:25.593Z,16.25
2022-10-05T09:36:18.847Z,16.24
2022-10-05T09:39:54.256Z,16.30
2022-10-05T09:42:49.476Z,16.30
2022-10-05T09:45:57.593Z,16.36
2022-10-05T09:49:01.563Z,16.15
2022-10-05T09:52:00.131Z,16.16
2022-10-05T09:55:08.860Z,16.22
2022-10-05T09:58:22.459Z,16.23
2022-10-05T10:01:32.785Z,16.18
2022-10-05T10:04:35.757Z,16.15
2022-10-05T10:07:57.286Z,16.17
2022-10-05T10:10:53.713Z,16.09
2022-10-05T10:14:00.011Z,16.04
2022-10-05T10:16:53.615Z,16.03
2022-10-05T10:19:58.948Z,16.06
2022-10-05T10:23:04.904Z,15.95
2022-10-05T10:26:18.288Z,16.00
2022-10-05T10:33:19.058Z,15.93
2022-10-05T10:36:06.048Z,15.82
2022-10-05T10:38:55.459Z,15.85
2022-10-05T10:42:01.688Z,15.98
2022-10-05T10:45:25.315Z,16.11
2022-10-05T10:48:11.816Z,16.16
2022-10-05T10:51:05.259Z,16.35
2022-10-05T10:54:42.582Z,16.51
2022-10-05T10:57:29.447Z,16.79
2022-10-05T11:00:31.455Z,17.09
2022-10-05T11:03:39.332Z,17.37
2022-10-05T11:06:42.561Z,17.59
2022-10-05T11:09:51.242Z,17.81
2022-10-05T11:13:08.141Z,17.98
2022-10-05T11:16:19.903Z,18.11
2022-10-05T11:19:21.722Z,18.17
2022-10-05T11:22:19.153Z,18.42
2022-10-05T11:25:14.191Z,18.67
2022-10-05T11:28:20.920Z,19.07
2022-10-05T11:31:31.028Z,19.33
2022-10-05T11:34:37.914Z,19.36
2022-10-05T11:37:51.135Z,19.76
2022-10-05T11:41:02.237Z,19.95
2022-10-05T11:44:19.657Z,19.89
2022-10-05T11:47:08.427Z,19.93
2022-10-05T11:49:53.968Z,19.98
2022-10-05T11:52:40.324Z,19.94
2022-10-05T11:55:43.958Z,19.78
2022-10-05T11:58:49.455Z,19.86
2022-10-05T12:01:34.882Z,19.68
2022-10-05T12:04:37.740Z,19.50
2022-10-05T12:07:22.229Z,19.24
2022-10-05T12:10:23.250Z,19.35
2022-10-05T12:13:22.075Z,19.19
2022-10-05T12:16:07.113Z,18.90
2022-10-05T12:19:01.833Z,18.93
2022-10-05T12:22:29.291Z,18.74
2022-10-05T12:25:21.516Z,18.81
2022-10-05T12:28:05.236Z,18.80
2022-10-05T12:31:01.062Z,18.69
2022-10-05T12:35:48.420Z,18.55
2022-10-05T12:38:54.673Z,18.54
2022-10-05T12:41:49.961Z,18.47
2022-10-05T12:45:08.214Z,18.41
2022-10-05T12:48:09.451Z,18.64
2022-10-05T12:50:51.135Z,19.05
2022-10-05T12:53:43.321Z,19.41
2022-10-05T12:56:48.668Z,19.55
2022-10-05T12:59:41.215Z,19.77
2022-10-05T13:02:31.608Z,20.11
2022-10-05T13:05:26.478Z,20.39
2022-10-05T13:08:14.726Z,20.74
2022-10-05T13:11:02.083Z,21.01
2022-10-05T13:14:09.466Z,20.85
2022-10-05T13:16:55.273Z,20.98
2022-10-05T13:19:40.671Z,21.11
2022-10-05T13:22:44.050Z,21.10
2022-10-05T13:25:28.569Z,21.05
2022-10-05T13:28:16.585Z,20.85
2022-10-05T13:31:05.352Z,20.62
2022-10-05T13:34:02.207Z,20.63
2022-10-05T13:36:50.187Z,20.46
2022-10-05T13:39:42.156Z,20.36
2022-10-05T13:42:29.852Z,20.11
2022-10-05T13:45:15.970Z,19.90
2022-10-05T13:48:11.597Z,19.71
2022-10-05T13:51:01.821Z,19.44
2022-10-05T13:53:49.750Z,19.21
2022-10-05T13:56:31.950Z,19.17
2022-10-05T13:59:18.529Z,19.13
2022-10-05T14:02:00.539Z,19.13
2022-10-05T14:05:23.823Z,18.92
2022-10-05T14:12:27.406Z,18.66
2022-10-05T14:15:39.761Z,18.50
2022-10-05T14:18:31.851Z,18.49
2022-10-05T14:21:56.244Z,18.45
2022-10-05T14:25:03.721Z,18.40
2022-10-05T14:28:05.864Z,18.29
2022-10-05T14:31:14.980Z,18.24
2022-10-05T14:33:54.953Z,18.23
2022-10-05T14:36:40.051Z,18.23
2022-10-05T14:39:35.906Z,18.27
2022-10-05T14:42:18.032Z,18.23
2022-10-05T14:45:14.294Z,18.20
2022-10-05T14:47:56.124Z,18.19
2022-10-05T14:50:54.855Z,18.16
2022-10-05T14:53:40.648Z,18.14
2022-10-05T14:56:40.877Z,18.12
2022-10-05T14:59:43.393Z,18.10
2022-10-05T15:02:38.526Z,18.04
2022-10-05T15:05:24.663Z,18.01
2022-10-05T15:08:14.516Z,17.97
2022-10-05T15:11:00.124Z,17.90
2022-10-05T15:13:42.495Z,17.81
2022-10-05T15:16:25.587Z,17.77
2022-10-05T15:19:16.847Z,17.70
2022-10-05T15:22:07.686Z,17.67
2022-10-05T15:25:02.607Z,17.62
2022-10-05T15:27:56.655Z,17.56
2022-10-05T15:30:37.831Z,17.55
2022-10-05T15:33:23.112Z,17.49
2022-10-05T15:36:11.055Z,17.47
2022-10-05T15:39:02.852Z,17.42
2022-10-05T15:41:55.174Z,17.38
2022-10-05T15:44:46.547Z,17.37
2022-10-05T15:47:34.676Z,17.33
2022-10-05T15:50:29.613Z,17.31
2022-10-05T15:53:19.696Z,17.27
2022-10-05T15:56:01.079Z,17.21
2022-10-05T15:58:53.806Z,17.19
2022-10-05T16:01:47.062Z,17.11
2022-10-05T16:04:41.731Z,17.02
2022-10-05T16:07:57.556Z,17.01
2022-10-05T16:10:40.709Z,16.92
2022-10-05T16:13:26.964Z,16.86
2022-10-05T16:16:20.647Z,16.77
2022-10-05T16:19:04.281Z,16.72
2022-10-05T16:21:51.462Z,16.64
2022-10-05T16:24:50.025Z,16.56
2022-10-05T16:28:05.218Z,16.47
2022-10-05T16:30:55.122Z,16.40
2022-10-05T16:33:47.066Z,16.29
2022-10-05T16:36:37.621Z,16.11
2022-10-05T16:39:22.488Z,16.07
2022-10-05T16:42:06.251Z,16.00
2022-10-05T16:44:50.727Z,15.89
2022-10-05T16:47:37.165Z,15.77
2022-10-05T16:50:23.675Z,15.71
2022-10-05T16:53:06.637Z,15.62
2022-10-05T16:55:49.122Z,15.49
2022-10-05T16:58:58.628Z,15.45
2022-10-05T17:01:49.275Z,15.40
2022-10-05T17:04:41.263Z,15.32
2022-10-05T17:07:52.959Z,15.26
2022-10-05T17:11:07.341Z,15.20
2022-10-05T17:14:04.775Z,15.10
2022-10-05T17:16:55.342Z,15.13
2022-10-05T17:19:55.913Z,15.08
2022-10-05T17:22:40.393Z,15.08
2022-10-05T17:25:24.237Z,15.13
2022-10-05T17:28:23.479Z,15.08
2022-10-05T17:31:14.772Z,15.07
2022-10-05T17:34:29.077Z,15.11
2022-10-05T17:37:35.417Z,15.10
2022-10-05T17:40:35.223Z,15.10
2022-10-05T17:43:26.140Z,15.05
2022-10-05T17:46:06.776Z,15.02
2022-10-05T17:49:28.422Z,15.02
2022-10-05T17:52:43.798Z,15.03
2022-10-05T17:55:42.745Z,15.04
2022-10-05T17:59:03.676Z,15.10
2022-10-05T18:01:42.829Z,15.08
2022-10-05T18:04:39.874Z,15.15
2022-10-05T18:07:26.462Z,15.27
2022-10-05T18:10:23.226Z,15.32
2022-10-05T18:13:22.189Z,15.32
2022-10-05T18:16:05.027Z,15.35
2022-10-05T18:19:00.754Z,15.39
2022-10-05T18:22:01.215Z,15.37
2022-10-05T18:24:48.946Z,15.36
2022-10-05T18:28:00.673Z,15.38
2022-10-05T18:30:46.030Z,15.35
2022-10-05T18:34:08.812Z,15.34
2022-10-05T18:36:58.239Z,15.36
2022-10-05T18:39:53.699Z,15.32
2022-10-05T18:42:40.036Z,15.29
2022-10-05T18:45:25.546Z,15.28
2022-10-05T18:48:16.865Z,15.25
2022-10-05T18:51:04.833Z,15.29
2022-10-05T18:53:57.520Z,15.25
2022-10-05T18:56:42.379Z,15.36
2022-10-05T18:59:33.053Z,15.38
2022-10-05T19:02:20.854Z,15.31
2022-10-05T19:05:46.311Z,15.29
2022-10-05T19:08:29.849Z,15.33
2022-10-05T19:11:19.166Z,15.40
2022-10-05T19:14:07.366Z,15.46
2022-10-05T19:16:55.809Z,15.51
2022-10-05T19:19:49.357Z,15.44
2022-10-05T19:22:40.194Z,15.45
2022-10-05T19:25:37.944Z,15.55
2022-10-05T19:28:35.565Z,15.57
2022-10-05T19:31:27.519Z,15.61
2022-10-05T19:34:20.651Z,15.61
2022-10-05T19:37:05.546Z,15.63
2022-10-05T19:39:49.168Z,15.70
2022-10-05T19:42:46.996Z,15.82
2022-10-05T19:45:29.344Z,15.86
2022-10-05T19:48:22.682Z,16.00
2022-10-05T19:51:30.534Z,16.08
2022-10-05T19:54:17.415Z,16.08
2022-10-05T19:57:00.103Z,16.09
2022-10-05T19:59:46.048Z,16.13
2022-10-05T20:02:28.043Z,16.23
2022-10-05T20:05:13.869Z,16.22
2022-10-05T20:07:53.207Z,16.24
2022-10-05T20:10:35.076Z,16.29
2022-10-05T20:13:35.834Z,16.39
2022-10-05T20:16:40.000Z,16.43
2022-10-05T20:19:49.950Z,16.43
2022-10-05T20:22:34.222Z,16.42
2022-10-05T20:25:31.898Z,16.43
2022-10-05T20:28:11.939Z,16.49
2022-10-05T20:30:52.464Z,16.49
2022-10-05T20:33:34.326Z,16.52
2022-10-05T20:36:16.555Z,16.56
2022-10-05T20:39:00.028Z,16.57
2022-10-05T20:41:40.689Z,16.58
2022-10-05T20:44:57.008Z,16.61
2022-10-05T20:47:38.212Z,16.60
2022-10-05T20:50:39.487Z,16.59
2022-10-05T20:53:19.568Z,16.60
2022-10-05T20:56:04.381Z,16.61
2022-10-05T20:58:44.308Z,16.54
2022-10-05T21:01:26.664Z,16.53
2022-10-05T21:04:06.857Z,16.49
2022-10-05T21:06:48.129Z,16.50
2022-10-05T21:09:42.228Z,16.44
2022-10-05T21:12:42.052Z,16.38
2022-10-05T21:15:23.272Z,16.34
2022-10-05T21:18:04.241Z,16.29
2022-10-05T21:21:01.985Z,16.27
2022-10-05T21:23:42.619Z,16.26
2022-10-05T21:26:23.484Z,16.30
2022-10-05T21:29:07.811Z,16.24
2022-10-05T21:31:50.135Z,16.33
2022-10-05T21:35:11.085Z,16.35
2022-10-05T21:37:50.526Z,16.34
2022-10-05T21:40:29.956Z,16.36
2022-10-05T21:43:10.912Z,16.40
2022-10-05T21:45:51.230Z,16.41
2022-10-05T21:48:31.964Z,16.43
2022-10-05T21:51:35.200Z,16.50
2022-10-05T21:54:19.279Z,16.50
2022-10-05T21:57:00.955Z,16.52
2022-10-05T21:59:41.281Z,16.55
2022-10-05T22:02:22.088Z,16.56
2022-10-05T22:05:04.035Z,16.55
2022-10-05T22:07:46.887Z,16.58
2022-10-05T22:10:28.955Z,16.64
2022-10-05T22:13:09.609Z,16.62
2022-10-05T22:15:49.028Z,16.63
2022-10-05T22:18:29.256Z,16.67
2022-10-05T22:21:12.332Z,16.70
2022-10-05T22:23:53.657Z,16.72
2022-10-05T22:26:34.701Z,16.71
2022-10-05T22:29:16.167Z,16.74
2022-10-05T22:32:16.698Z,16.73
2022-10-05T22:34:56.529Z,16.72
2022-10-05T22:37:37.927Z,16.70
2022-10-05T22:40:18.611Z,16.71
2022-10-05T22:42:59.251Z,16.72
2022-10-05T22:46:00.955Z,16.69
2022-10-05T22:48:41.414Z,16.67
2022-10-05T22:51:21.972Z,16.62
2022-10-05T22:54:04.582Z,16.61
2022-10-05T22:56:47.409Z,16.60
2022-10-05T22:59:26.806Z,16.53
2022-10-05T23:02:05.453Z,16.53
2022-10-05T23:04:46.557Z,16.50
2022-10-05T23:07:47.543Z,16.43
2022-10-05T23:10:27.117Z,16.41
2022-10-05T23:13:07.312Z,16.43
2022-10-05T23:15:48.993Z,16.39
2022-10-05T23:18:29.816Z,16.44
2022-10-05T23:21:11.000Z,16.48
2022-10-05T23:23:52.694Z,16.48
2022-10-05T23:26:33.366Z,16.47
2022-10-05T23:29:13.413Z,16.48
2022-10-05T23:31:53.005Z,16.53
2022-10-05T23:34:33.131Z,16.54
2022-10-05T23:37:17.638Z,16.53
2022-10-05T23:39:57.467Z,16.56
2022-10-05T23:42:37.381Z,16.54
2022-10-05T23:45:17.188Z,16.54
2022-10-05T23:47:56.927Z,16.54
2022-10-05T23:50:36.852Z,16.59
2022-10-05T23:53:17.288Z,16.53
2022-10-05T23:55:57.124Z,16.58
2022-10-05T23:58:58.931Z,16.61
